Time;durP1;ratioP1;P1;durP2;ratioP2;P2;SDS_P1;SDS_P2;PMS_P1;PMS_P2;Temp;Humidity;BMP_temperature;BMP_pressure;BME280_temperature;BME280_humidity;BME280_pressure;Samples;Min_cycle;Max_cycle;Signal;HPM_P1;HPM_P2
2024/02/27 00:01:32;;;;;;;22.25;14.95;;;6.80;99.90;;;;;;4077078;29;20036;-70
2024/02/27 00:03:32;;;;;;;22.73;14.80;;;6.70;99.90;;;;;;4077275;29;20482;-71
2024/02/27 00:05:33;;;;;;;20.33;13.80;;;6.80;99.90;;;;;;4092681;28;20485;-69
2024/02/27 00:07:34;;;;;;;21.63;14.35;;;6.80;99.90;;;;;;4093658;28;20031;-69
2024/02/27 00:09:35;;;;;;;21.95;14.32;;;6.80;99.90;;;;;;4091302;28;20067;-69
2024/02/27 00:11:35;;;;;;;22.80;15.43;;;6.90;99.90;;;;;;4090298;28;20034;-71
2024/02/27 00:13:36;;;;;;;19.85;14.60;;;6.80;99.90;;;;;;4090758;28;20478;-71
2024/02/27 00:15:37;;;;;;;22.05;14.80;;;6.90;99.90;;;;;;4089922;28;20046;-70
2024/02/27 00:17:37;;;;;;;22.42;14.77;;;6.90;99.90;;;;;;4092909;28;20050;-71
2024/02/27 00:19:41;;;;;;;20.65;13.70;;;6.90;99.90;;;;;;4092264;28;20397;-71
2024/02/27 00:21:42;;;;;;;20.98;14.27;;;6.90;99.90;;;;;;4093688;28;20552;-70
2024/02/27 00:23:42;;;;;;;20.65;13.88;;;6.90;99.90;;;;;;4098011;28;20065;-70
2024/02/27 00:25:43;;;;;;;22.42;15.15;;;6.90;99.90;;;;;;4097088;28;20493;-71
2024/02/27 00:27:43;;;;;;;22.35;14.48;;;6.90;99.90;;;;;;4096676;28;20039;-71
2024/02/27 00:29:44;;;;;;;20.25;13.98;;;6.90;99.90;;;;;;4074264;29;20407;-73
2024/02/27 00:31:45;;;;;;;19.67;13.63;;;7.00;99.90;;;;;;4062753;29;20021;-70
2024/02/27 00:33:45;;;;;;;22.40;14.48;;;7.00;99.90;;;;;;4065920;29;20032;-71
2024/02/27 00:35:46;;;;;;;22.58;14.70;;;6.90;99.90;;;;;;4075391;29;20492;-71
2024/02/27 00:37:46;;;;;;;21.92;14.40;;;6.90;99.90;;;;;;4066140;29;20032;-69
2024/02/27 00:39:47;;;;;;;20.25;14.10;;;6.90;99.90;;;;;;4065093;29;20482;-71
2024/02/27 00:41:49;;;;;;;19.75;13.43;;;6.90;99.90;;;;;;4066604;29;20028;-71
2024/02/27 00:43:50;;;;;;;21.58;14.32;;;7.00;99.90;;;;;;4061849;29;20509;-69
2024/02/27 00:45:50;;;;;;;21.52;14.18;;;6.90;99.90;;;;;;4062166;29;20028;-70
2024/02/27 00:47:51;;;;;;;24.80;15.90;;;7.00;99.90;;;;;;4064979;29;20442;-71
2024/02/27 00:49:51;;;;;;;22.70;15.10;;;7.00;99.90;;;;;;4075861;29;20524;-70
2024/02/27 00:51:52;;;;;;;20.83;14.43;;;7.00;99.90;;;;;;4077139;28;20027;-72
2024/02/27 00:53:53;;;;;;;21.20;13.93;;;7.00;99.90;;;;;;4063737;29;20032;-70
2024/02/27 00:55:53;;;;;;;19.30;13.27;;;7.00;99.90;;;;;;4061737;29;20043;-70
2024/02/27 00:57:54;;;;;;;20.23;13.38;;;7.00;99.90;;;;;;4063991;29;20037;-67
2024/02/27 00:59:54;;;;;;;21.35;14.30;;;7.00;99.90;;;;;;4064133;29;20069;-69
2024/02/27 01:01:55;;;;;;;20.55;13.23;;;7.00;99.90;;;;;;4077484;29;20152;-67
2024/02/27 01:03:56;;;;;;;21.80;13.55;;;7.00;99.90;;;;;;4065543;29;20410;-67
2024/02/27 01:05:56;;;;;;;21.23;13.57;;;7.00;99.90;;;;;;4062850;29;20451;-66
2024/02/27 01:07:57;;;;;;;21.27;13.73;;;7.10;99.90;;;;;;4075634;29;20107;-69
2024/02/27 01:09:58;;;;;;;22.65;14.38;;;7.10;99.90;;;;;;4066745;29;20027;-66
2024/02/27 01:11:59;;;;;;;21.23;14.43;;;7.10;99.90;;;;;;4064410;29;21278;-65
2024/02/27 01:14:00;;;;;;;19.88;13.10;;;7.10;99.90;;;;;;4076789;29;20048;-67
2024/02/27 01:16:01;;;;;;;21.10;14.35;;;7.10;99.90;;;;;;4059798;29;20036;-66
2024/02/27 01:18:02;;;;;;;21.98;14.48;;;7.10;99.90;;;;;;4064580;29;20040;-67
2024/02/27 01:20:03;;;;;;;21.58;14.27;;;7.00;99.90;;;;;;4064697;29;20068;-68
2024/02/27 01:22:04;;;;;;;21.90;14.13;;;7.00;99.90;;;;;;4076904;29;20063;-67
2024/02/27 01:24:05;;;;;;;20.40;13.07;;;7.00;99.90;;;;;;4066709;29;20486;-67
2024/02/27 01:26:06;;;;;;;22.20;14.02;;;7.00;99.90;;;;;;4061818;29;20036;-66
2024/02/27 01:28:06;;;;;;;22.17;14.52;;;7.00;99.90;;;;;;4075496;29;20047;-67
2024/02/27 01:30:07;;;;;;;22.45;14.45;;;7.00;99.90;;;;;;4079207;28;20043;-68
2024/02/27 01:32:09;;;;;;;23.00;14.60;;;7.00;99.90;;;;;;4095437;28;20961;-67
2024/02/27 01:34:11;;;;;;;20.83;14.10;;;7.00;99.90;;;;;;4096572;28;20393;-68
2024/02/27 01:36:11;;;;;;;22.40;13.82;;;6.90;99.90;;;;;;4093588;28;20168;-66
2024/02/27 01:38:12;;;;;;;20.75;13.80;;;7.00;99.90;;;;;;4102518;28;20060;-66
2024/02/27 01:40:13;;;;;;;22.10;13.98;;;7.00;99.90;;;;;;4095392;28;20032;-68
2024/02/27 01:42:14;;;;;;;22.60;14.27;;;6.90;99.90;;;;;;4078467;29;20047;-67
2024/02/27 01:44:14;;;;;;;19.98;13.68;;;7.00;99.90;;;;;;4101245;28;20030;-67
2024/02/27 01:46:20;;;;;;;22.00;14.55;;;7.00;99.90;;;;;;4085192;28;20130;-67
2024/02/27 01:48:20;;;;;;;23.05;14.40;;;7.00;99.90;;;;;;4086920;28;20063;-67
2024/02/27 01:50:23;;;;;;;21.08;13.93;;;7.00;99.90;;;;;;4086824;29;20146;-68
2024/02/27 01:52:23;;;;;;;;;;;7.00;99.90;;;;;;4078828;29;20032;-69
2024/02/27 01:54:26;;;;;;;22.17;14.32;;;7.00;99.90;;;;;;4104004;28;19941;-68
2024/02/27 01:56:27;;;;;;;25.90;15.43;;;6.90;99.90;;;;;;4095709;28;20489;-67
2024/02/27 01:58:28;;;;;;;22.65;14.73;;;7.00;99.90;;;;;;4095059;28;20453;-67
2024/02/27 02:00:29;;;;;;;21.75;14.25;;;6.90;99.90;;;;;;4093491;28;20031;-68
2024/02/27 02:02:34;;;;;;;26.67;15.23;;;6.90;99.90;;;;;;4092079;28;20516;-67
2024/02/27 02:04:35;;;;;;;23.10;14.80;;;6.90;99.90;;;;;;4095596;28;20496;-67
2024/02/27 02:06:36;;;;;;;22.10;14.68;;;6.90;99.90;;;;;;4091099;28;20039;-68
2024/02/27 02:08:37;;;;;;;24.20;14.98;;;6.90;99.90;;;;;;4076496;29;20414;-66
2024/02/27 02:10:38;;;;;;;22.45;14.18;;;6.90;99.90;;;;;;4093791;28;20509;-66
2024/02/27 02:12:39;;;;;;;21.25;14.02;;;6.90;99.90;;;;;;4092975;28;20055;-66
2024/02/27 02:14:41;;;;;;;21.83;14.38;;;6.90;99.90;;;;;;4094799;28;20142;-66
2024/02/27 02:16:41;;;;;;;23.70;15.33;;;6.90;99.90;;;;;;4101550;28;20476;-67
2024/02/27 02:18:42;;;;;;;24.17;15.70;;;6.90;99.90;;;;;;4095222;28;20047;-66
2024/02/27 02:20:43;;;;;;;21.33;13.90;;;6.90;99.90;;;;;;4095827;28;20023;-67
2024/02/27 02:22:44;;;;;;;23.00;14.75;;;6.90;99.90;;;;;;4084015;28;20040;-66
2024/02/27 02:24:45;;;;;;;23.00;15.00;;;6.90;99.90;;;;;;4084030;29;20047;-66
2024/02/27 02:26:46;;;;;;;22.92;15.20;;;6.90;99.90;;;;;;4080783;29;20056;-66
2024/02/27 02:28:46;;;;;;;23.60;14.95;;;6.90;99.90;;;;;;4096033;28;20028;-66
2024/02/27 02:30:47;;;;;;;21.08;13.57;;;6.80;99.90;;;;;;4093501;28;20118;-68
2024/02/27 02:32:48;;;;;;;23.88;14.73;;;6.90;99.90;;;;;;4092369;28;20027;-67
2024/02/27 02:34:49;;;;;;;21.27;13.95;;;6.90;99.90;;;;;;4102665;28;20043;-68
2024/02/27 02:36:49;;;;;;;23.33;14.85;;;6.90;99.90;;;;;;4093543;28;20393;-66
2024/02/27 02:38:50;;;;;;;22.17;14.25;;;6.90;99.90;;;;;;4093970;28;20090;-67
2024/02/27 02:40:51;;;;;;;24.67;15.07;;;6.90;99.90;;;;;;4098845;28;20042;-68
2024/02/27 02:42:51;;;;;;;22.23;14.85;;;6.90;99.90;;;;;;4092408;28;20043;-66
2024/02/27 02:44:52;;;;;;;24.02;15.68;;;6.90;99.90;;;;;;4094503;28;20109;-66
2024/02/27 02:46:53;;;;;;;22.13;14.65;;;6.80;99.90;;;;;;4095852;28;20524;-67
2024/02/27 02:48:54;;;;;;;22.75;14.57;;;6.90;99.90;;;;;;4094025;28;20035;-68
2024/02/27 02:50:55;;;;;;;22.17;14.88;;;6.90;99.90;;;;;;4093220;28;20142;-68
2024/02/27 02:52:56;;;;;;;23.42;14.82;;;6.90;99.90;;;;;;4095017;28;20058;-67
2024/02/27 02:54:57;;;;;;;23.42;15.32;;;6.90;99.90;;;;;;4077806;29;20047;-66
2024/02/27 02:56:58;;;;;;;24.60;15.73;;;6.90;99.90;;;;;;4096468;28;20065;-66
2024/02/27 02:58:59;;;;;;;22.98;14.82;;;6.90;99.90;;;;;;4094660;28;20497;-67
2024/02/27 03:00:59;;;;;;;22.88;15.18;;;6.90;99.90;;;;;;4093467;28;20499;-67
2024/02/27 03:03:00;;;;;;;24.15;15.30;;;6.80;99.90;;;;;;4095357;28;20031;-66
2024/02/27 03:05:01;;;;;;;22.17;15.15;;;6.80;99.90;;;;;;4100515;28;20030;-67
2024/02/27 03:07:01;;;;;;;23.83;14.98;;;6.80;99.90;;;;;;4094187;28;20027;-66
2024/02/27 03:09:02;;;;;;;26.33;16.42;;;6.90;99.90;;;;;;4073050;29;20039;-68
2024/02/27 03:11:04;;;;;;;23.08;15.07;;;6.80;99.90;;;;;;4083997;29;20035;-66
2024/02/27 03:13:05;;;;;;;22.83;15.50;;;6.80;99.90;;;;;;4095585;28;20143;-67
2024/02/27 03:15:06;;;;;;;23.30;15.10;;;6.80;99.90;;;;;;4094021;28;20449;-69
2024/02/27 03:17:07;;;;;;;23.60;15.52;;;6.80;99.90;;;;;;4094873;28;20067;-68
2024/02/27 03:19:07;;;;;;;25.17;15.65;;;6.80;99.90;;;;;;4094707;28;20039;-71
2024/02/27 03:21:08;;;;;;;26.15;16.88;;;6.80;99.90;;;;;;4093266;28;20200;-71
2024/02/27 03:23:08;;;;;;;23.33;15.38;;;6.80;99.90;;;;;;4077991;29;20384;-71
2024/02/27 03:25:10;;;;;;;25.63;15.25;;;6.80;99.90;;;;;;4091705;28;20035;-70
2024/02/27 03:27:11;;;;;;;22.55;14.52;;;6.80;99.90;;;;;;4095557;28;20126;-71
2024/02/27 03:29:11;;;;;;;26.13;16.38;;;6.80;99.90;;;;;;4098682;28;20567;-70
2024/02/27 03:31:12;;;;;;;24.48;15.68;;;6.80;99.90;;;;;;4093334;28;20083;-69
2024/02/27 03:33:12;;;;;;;25.17;15.27;;;6.80;99.90;;;;;;4092885;28;20118;-69
2024/02/27 03:35:13;;;;;;;21.63;14.45;;;6.80;99.90;;;;;;4094136;28;20039;-70
2024/02/27 03:37:15;;;;;;;26.00;16.02;;;6.80;99.90;;;;;;4092885;28;20382;-70
2024/02/27 03:39:16;;;;;;;24.65;15.57;;;6.80;99.90;;;;;;4078728;29;20123;-70
2024/02/27 03:41:18;;;;;;;24.95;16.20;;;6.80;99.90;;;;;;4087249;28;20038;-70
2024/02/27 03:43:18;;;;;;;23.83;15.70;;;6.80;99.90;;;;;;4088054;28;20054;-70
2024/02/27 03:45:19;;;;;;;24.05;15.23;;;6.80;99.90;;;;;;4090560;28;20535;-70
2024/02/27 03:47:20;;;;;;;23.65;14.93;;;6.80;99.90;;;;;;4094266;28;20051;-70
2024/02/27 03:49:20;;;;;;;23.35;15.00;;;6.80;99.90;;;;;;4098654;28;20137;-70
2024/02/27 03:51:21;;;;;;;22.95;14.45;;;6.80;99.90;;;;;;4093141;28;20540;-69
2024/02/27 03:53:21;;;;;;;24.13;15.15;;;6.80;99.90;;;;;;4094695;28;20039;-70
2024/02/27 03:55:22;;;;;;;22.50;15.07;;;6.80;99.90;;;;;;4093769;28;20039;-69
2024/02/27 03:57:23;;;;;;;23.63;14.82;;;6.80;99.90;;;;;;4093974;28;20031;-69
2024/02/27 03:59:24;;;;;;;19.10;12.75;;;6.80;99.90;;;;;;4093537;28;20429;-70
2024/02/27 04:01:24;;;;;;;25.70;15.07;;;6.80;99.90;;;;;;4092727;28;20126;-70
2024/02/27 04:03:25;;;;;;;22.17;14.18;;;6.80;99.90;;;;;;4094985;28;20121;-70
2024/02/27 04:05:25;;;;;;;24.45;15.77;;;6.80;99.90;;;;;;4093173;28;20396;-70
2024/02/27 04:07:26;;;;;;;22.48;14.55;;;6.80;99.90;;;;;;4093557;28;20047;-70
2024/02/27 04:09:27;;;;;;;26.85;16.60;;;6.80;99.90;;;;;;4090615;28;20497;-69
2024/02/27 04:11:27;;;;;;;26.65;15.75;;;6.70;99.90;;;;;;4084273;28;20038;-69
2024/02/27 04:13:28;;;;;;;25.35;16.23;;;6.80;99.90;;;;;;4094602;28;20215;-71
2024/02/27 04:15:28;;;;;;;24.20;14.82;;;6.80;99.90;;;;;;4091966;28;20043;-70
2024/02/27 04:17:29;;;;;;;25.65;15.50;;;6.70;99.90;;;;;;4094650;28;20039;-69
2024/02/27 04:19:30;;;;;;;22.20;14.18;;;6.70;99.90;;;;;;4090291;28;20461;-71
2024/02/27 04:21:31;;;;;;;18.92;12.75;;;6.70;99.90;;;;;;4092942;28;20347;-71
2024/02/27 04:23:32;;;;;;;23.30;14.32;;;6.70;99.90;;;;;;4079982;29;20036;-69
2024/02/27 04:25:33;;;;;;;24.45;15.25;;;6.60;99.90;;;;;;4094487;28;20534;-71
2024/02/27 04:27:34;;;;;;;20.23;13.93;;;6.60;99.90;;;;;;4092684;29;20047;-70
2024/02/27 04:29:34;;;;;;;21.25;13.48;;;6.70;99.90;;;;;;4095072;28;20070;-69
2024/02/27 04:31:35;;;;;;;26.42;14.77;;;6.70;99.90;;;;;;4090544;28;20055;-69
2024/02/27 04:33:35;;;;;;;20.83;13.82;;;6.60;99.90;;;;;;4094353;28;20035;-69
2024/02/27 04:35:36;;;;;;;20.92;13.75;;;6.60;99.90;;;;;;4092311;28;20055;-70
2024/02/27 04:37:37;;;;;;;23.45;14.80;;;6.50;99.90;;;;;;4076143;29;20365;-70
2024/02/27 04:39:37;;;;;;;20.35;13.45;;;6.50;99.90;;;;;;4092834;28;20054;-71
2024/02/27 04:41:38;;;;;;;24.35;15.20;;;6.50;99.90;;;;;;4089807;28;20232;-70
2024/02/27 04:43:39;;;;;;;22.80;14.27;;;6.50;99.90;;;;;;4089741;28;20051;-72
2024/02/27 04:45:39;;;;;;;22.80;13.98;;;6.50;99.90;;;;;;4072369;29;20028;-71
2024/02/27 04:47:40;;;;;;;20.10;13.45;;;6.60;99.90;;;;;;4092602;28;20094;-71
2024/02/27 04:49:40;;;;;;;21.95;12.80;;;6.60;99.90;;;;;;4094007;28;20027;-71
2024/02/27 04:51:42;;;;;;;20.13;13.18;;;6.60;99.90;;;;;;4093537;28;20031;-70
2024/02/27 04:53:43;;;;;;;22.98;14.15;;;6.50;99.90;;;;;;4097953;28;20035;-70
2024/02/27 04:55:43;;;;;;;21.48;13.48;;;6.60;99.90;;;;;;4090429;28;20039;-70
2024/02/27 04:57:44;;;;;;;21.35;14.00;;;6.50;99.90;;;;;;4075925;29;20119;-71
2024/02/27 04:59:51;;;;;;;22.70;14.48;;;6.50;99.90;;;;;;4076321;29;20033;-71
2024/02/27 05:01:52;;;;;;;22.23;14.45;;;6.50;99.90;;;;;;4051794;29;20132;-69
2024/02/27 05:03:53;;;;;;;21.23;13.80;;;6.50;99.90;;;;;;4076693;29;20426;-71
2024/02/27 05:05:54;;;;;;;21.38;13.88;;;6.50;99.90;;;;;;4072847;29;20052;-70
2024/02/27 05:07:54;;;;;;;24.48;15.18;;;6.50;99.90;;;;;;4080231;29;20060;-72
2024/02/27 05:09:55;;;;;;;22.00;13.85;;;6.50;99.90;;;;;;4076396;29;20089;-71
2024/02/27 05:11:56;;;;;;;25.13;14.15;;;6.50;99.90;;;;;;4077428;29;20119;-71
2024/02/27 05:13:56;;;;;;;23.08;13.88;;;6.40;99.90;;;;;;4069871;29;20032;-69
2024/02/27 05:15:57;;;;;;;21.55;13.45;;;6.50;99.90;;;;;;4052472;29;20039;-70
2024/02/27 05:17:58;;;;;;;20.88;13.57;;;6.40;99.90;;;;;;4076672;29;20072;-70
2024/02/27 05:19:58;;;;;;;19.83;13.07;;;6.40;99.90;;;;;;4080769;29;20394;-69
2024/02/27 05:21:59;;;;;;;19.70;12.85;;;6.40;99.90;;;;;;4090215;28;20035;-72
2024/02/27 05:23:59;;;;;;;21.58;13.25;;;6.40;99.90;;;;;;4095001;28;20511;-69
2024/02/27 05:26:00;;;;;;;19.77;12.55;;;6.40;99.90;;;;;;4093228;28;20042;-70
2024/02/27 05:28:01;;;;;;;19.42;12.90;;;6.40;99.90;;;;;;4095007;28;20485;-71
2024/02/27 05:30:05;;;;;;;22.27;12.75;;;6.40;99.90;;;;;;4092307;28;20042;-70
2024/02/27 05:32:05;;;;;;;21.13;13.60;;;6.40;99.90;;;;;;4077099;29;20148;-71
2024/02/27 05:34:07;;;;;;;21.67;13.32;;;6.40;99.90;;;;;;4095796;28;20023;-71
2024/02/27 05:36:07;;;;;;;25.13;15.38;;;6.50;99.90;;;;;;4077826;28;20512;-70
2024/02/27 05:38:08;;;;;;;20.77;13.35;;;6.50;99.90;;;;;;4092476;28;20055;-70
2024/02/27 05:40:10;;;;;;;22.65;14.25;;;6.50;99.90;;;;;;4094387;28;20047;-69
2024/02/27 05:42:11;;;;;;;22.67;13.70;;;6.50;99.90;;;;;;4094986;28;20036;-71
2024/02/27 05:44:12;;;;;;;20.77;13.38;;;6.40;99.90;;;;;;4093819;28;20450;-70
2024/02/27 05:46:13;;;;;;;21.35;13.52;;;6.50;99.90;;;;;;4094134;28;20083;-70
2024/02/27 05:48:13;;;;;;;23.35;14.45;;;6.50;99.90;;;;;;4097029;28;20433;-66
2024/02/27 05:50:18;;;;;;;22.05;13.50;;;6.50;99.90;;;;;;4084908;28;20055;-67
2024/02/27 05:52:22;;;;;;;21.08;12.43;;;6.40;99.90;;;;;;4094833;28;20532;-66
2024/02/27 05:54:22;;;;;;;23.35;14.02;;;6.40;99.90;;;;;;4076641;29;20067;-66
2024/02/27 05:56:23;;;;;;;21.63;13.82;;;6.50;99.90;;;;;;4072636;28;20050;-69
2024/02/27 05:58:35;;;;;;;20.88;13.60;;;6.40;99.90;;;;;;4091796;28;20046;-69
2024/02/27 06:00:41;;;;;;;19.33;13.00;;;6.50;99.90;;;;;;4059956;28;20053;-66
2024/02/27 06:02:42;;;;;;;21.92;13.57;;;6.40;99.90;;;;;;4075578;28;20059;-67
2024/02/27 06:04:43;;;;;;;23.27;14.35;;;6.40;99.90;;;;;;4083413;28;20032;-66
2024/02/27 06:07:00;;;;;;;26.15;15.52;;;6.40;99.90;;;;;;4089137;28;20089;-68
2024/02/27 06:09:07;;;;;;;20.77;13.57;;;6.40;99.90;;;;;;4039167;28;20027;-69
2024/02/27 06:11:14;;;;;;;24.77;15.30;;;6.40;99.90;;;;;;4029011;28;20037;-66
2024/02/27 06:13:15;;;;;;;24.48;14.85;;;6.30;99.90;;;;;;4081917;28;20039;-66
2024/02/27 06:15:17;;;;;;;25.48;14.75;;;6.30;99.90;;;;;;4066126;28;20033;-67
2024/02/27 06:17:18;;;;;;;22.70;14.23;;;6.40;99.90;;;;;;4059350;28;20070;-67
2024/02/27 06:19:19;;;;;;;24.65;15.07;;;6.30;99.90;;;;;;4087787;28;20091;-65
2024/02/27 06:23:40;;;;;;;21.95;13.43;;;6.30;99.90;;;;;;4088715;28;20138;-67
2024/02/27 06:25:45;;;;;;;21.02;13.18;;;6.30;99.90;;;;;;4086826;28;20470;-69
2024/02/27 06:27:55;;;;;;;24.05;15.57;;;6.30;99.90;;;;;;4020939;28;20081;-66
2024/02/27 06:29:56;;;;;;;21.35;13.73;;;6.30;99.90;;;;;;4064280;28;20044;-67
2024/02/27 06:31:57;;;;;;;23.17;14.50;;;6.30;99.90;;;;;;4066755;28;20043;-66
2024/02/27 06:33:57;;;;;;;22.25;14.23;;;6.30;99.90;;;;;;4052392;29;20498;-70
2024/02/27 06:35:58;;;;;;;27.00;17.00;;;6.30;99.90;;;;;;4090146;28;20090;-67
2024/02/27 06:37:58;;;;;;;25.00;15.43;;;6.30;99.90;;;;;;4084429;28;20035;-66
2024/02/27 06:40:00;;;;;;;25.05;15.93;;;6.30;99.90;;;;;;4072591;29;20122;-66
2024/02/27 06:42:00;;;;;;;22.48;14.30;;;6.30;99.90;;;;;;4051920;29;20178;-68
2024/02/27 06:44:01;;;;;;;22.83;14.73;;;6.30;99.90;;;;;;4075116;29;20541;-68
2024/02/27 06:46:03;;;;;;;21.95;14.40;;;6.30;99.90;;;;;;4062768;29;20040;-67
2024/02/27 06:48:04;;;;;;;24.83;14.77;;;6.30;99.90;;;;;;4085750;28;20035;-67
2024/02/27 06:50:05;;;;;;;21.10;13.68;;;6.30;99.90;;;;;;4068665;28;20093;-67
2024/02/27 06:52:06;;;;;;;24.80;14.75;;;6.30;99.90;;;;;;4075860;28;20050;-67
2024/02/27 06:54:06;;;;;;;25.88;16.05;;;6.30;99.90;;;;;;4049653;28;20325;-69
2024/02/27 06:56:07;;;;;;;24.58;15.65;;;6.30;99.90;;;;;;4087899;28;20065;-68
2024/02/27 06:58:08;;;;;;;26.50;16.10;;;6.20;99.90;;;;;;4057069;29;20043;-68
2024/02/27 07:00:09;;;;;;;27.80;15.93;;;6.30;99.90;;;;;;4076907;28;20117;-67
2024/02/27 07:02:11;;;;;;;25.05;15.63;;;6.30;99.90;;;;;;4086684;28;20035;-69
2024/02/27 07:04:11;;;;;;;23.08;14.77;;;6.30;99.90;;;;;;4092417;28;20070;-67
2024/02/27 07:06:12;;;;;;;24.27;15.50;;;6.30;99.90;;;;;;4093928;28;20042;-69
2024/02/27 07:08:13;;;;;;;25.50;15.38;;;6.30;99.90;;;;;;4075340;28;20071;-67
2024/02/27 07:10:13;;;;;;;24.63;14.80;;;6.30;99.90;;;;;;4085822;28;20547;-69
2024/02/27 07:12:14;;;;;;;27.90;16.48;;;6.30;99.90;;;;;;4086561;28;20039;-68
2024/02/27 07:14:18;;;;;;;24.02;15.75;;;6.30;99.90;;;;;;4061374;29;20040;-70
2024/02/27 07:16:19;;;;;;;29.92;17.17;;;6.30;99.90;;;;;;4071349;28;20864;-67
2024/02/27 07:18:20;;;;;;;31.55;19.25;;;6.30;99.90;;;;;;4078968;28;20032;-67
2024/02/27 07:20:21;;;;;;;26.98;16.38;;;6.30;99.90;;;;;;4067921;28;20028;-67
2024/02/27 07:22:22;;;;;;;27.70;15.82;;;6.30;99.90;;;;;;4093602;28;20498;-70
2024/02/27 07:24:23;;;;;;;24.55;15.98;;;6.30;99.90;;;;;;4091282;28;20035;-67
2024/02/27 07:26:24;;;;;;;27.25;16.65;;;6.30;99.90;;;;;;4078507;29;20035;-69
2024/02/27 07:28:31;;;;;;;26.77;16.85;;;6.30;99.90;;;;;;4092017;28;20035;-68
2024/02/27 07:30:32;;;;;;;27.52;17.10;;;6.30;99.90;;;;;;4049155;28;1158586;-66
2024/02/27 07:32:36;;;;;;;27.02;16.45;;;6.30;99.90;;;;;;4077517;28;20133;-67
2024/02/27 07:34:36;;;;;;;24.52;15.25;;;6.30;99.90;;;;;;4089697;28;20039;-65
2024/02/27 07:36:37;;;;;;;25.67;16.73;;;6.30;99.90;;;;;;4090030;28;20033;-69
2024/02/27 07:38:37;;;;;;;24.70;15.63;;;6.20;99.90;;;;;;4086505;28;20039;-66
2024/02/27 07:40:38;;;;;;;25.70;16.15;;;6.20;99.90;;;;;;4085032;28;20039;-68
2024/02/27 07:42:39;;;;;;;29.10;17.45;;;6.30;99.90;;;;;;4088043;28;20039;-69
2024/02/27 07:44:40;;;;;;;28.33;16.83;;;6.30;99.90;;;;;;4080680;28;20121;-70
2024/02/27 07:46:40;;;;;;;24.02;15.68;;;6.30;99.90;;;;;;4086218;28;20043;-66
2024/02/27 07:48:44;;;;;;;26.88;16.67;;;6.30;99.90;;;;;;4087332;28;20086;-69
2024/02/27 07:50:44;;;;;;;28.30;16.33;;;6.30;99.90;;;;;;4091634;28;20127;-69
2024/02/27 07:52:45;;;;;;;29.80;17.80;;;6.30;99.90;;;;;;4091823;28;20054;-69
2024/02/27 07:54:46;;;;;;;27.48;17.13;;;6.30;99.90;;;;;;4088279;28;21280;-70
2024/02/27 07:56:46;;;;;;;26.95;17.83;;;6.30;99.90;;;;;;4093921;28;20043;-69
2024/02/27 07:58:47;;;;;;;31.50;18.50;;;6.30;99.90;;;;;;4074145;28;20036;-68
2024/02/27 08:00:49;;;;;;;30.95;19.25;;;6.30;99.90;;;;;;4092763;28;20065;-68
2024/02/27 08:02:51;;;;;;;28.50;18.17;;;6.30;99.90;;;;;;4066944;29;20437;-69
2024/02/27 08:04:52;;;;;;;28.95;17.60;;;6.30;99.90;;;;;;4094017;28;20493;-68
2024/02/27 08:06:56;;;;;;;29.40;17.92;;;6.30;99.90;;;;;;4086457;28;20042;-67
2024/02/27 08:08:57;;;;;;;29.17;17.77;;;6.30;99.90;;;;;;4092520;28;20039;-71
2024/02/27 08:10:58;;;;;;;30.65;18.77;;;6.30;99.90;;;;;;4075499;29;20606;-70
2024/02/27 08:12:58;;;;;;;29.90;18.98;;;6.40;99.90;;;;;;4089834;28;20555;-71
2024/02/27 08:14:59;;;;;;;28.98;18.02;;;6.40;99.90;;;;;;4076185;29;20513;-68
2024/02/27 08:17:01;;;;;;;28.90;18.48;;;6.40;99.90;;;;;;4089037;28;20441;-70
2024/02/27 08:19:04;;;;;;;32.67;19.83;;;6.40;99.90;;;;;;4092597;28;20107;-71
2024/02/27 08:21:04;;;;;;;;;;;6.40;99.90;;;;;;4089521;28;20046;-70
2024/02/27 08:23:05;;;;;;;31.42;19.10;;;6.40;99.90;;;;;;4093526;28;19914;-70
2024/02/27 08:25:07;;;;;;;33.38;20.05;;;6.40;99.90;;;;;;4092798;28;20053;-69
2024/02/27 08:27:08;;;;;;;29.73;19.13;;;6.30;99.90;;;;;;4080036;28;20050;-70
2024/02/27 08:29:08;;;;;;;30.90;19.13;;;6.40;99.90;;;;;;4071823;28;20948;-70
2024/02/27 08:31:09;;;;;;;32.58;18.90;;;6.40;99.90;;;;;;4075052;29;20051;-70
2024/02/27 08:33:11;;;;;;;30.27;18.33;;;6.40;99.90;;;;;;4089796;28;20039;-70
2024/02/27 08:35:11;;;;;;;30.80;18.95;;;6.40;99.90;;;;;;4092047;28;21302;-69
2024/02/27 08:37:12;;;;;;;33.92;21.17;;;6.40;99.90;;;;;;4090641;28;20163;-70
2024/02/27 08:39:13;;;;;;;30.10;18.58;;;6.30;99.90;;;;;;4083613;28;20540;-71
2024/02/27 08:41:20;;;;;;;30.27;19.02;;;6.30;99.90;;;;;;4077136;28;20040;-69
2024/02/27 08:43:21;;;;;;;33.47;20.20;;;6.30;99.90;;;;;;4094231;28;20097;-69
2024/02/27 08:45:21;;;;;;;33.88;21.38;;;6.20;99.90;;;;;;4077681;29;20047;-71
2024/02/27 08:47:22;;;;;;;32.30;19.50;;;6.10;99.90;;;;;;4095694;28;20055;-70
2024/02/27 08:49:23;;;;;;;31.15;19.08;;;6.10;99.90;;;;;;4089657;28;20472;-71
2024/02/27 08:51:23;;;;;;;31.08;19.90;;;6.10;99.90;;;;;;4095467;28;20043;-71
2024/02/27 08:53:24;;;;;;;29.73;17.80;;;6.10;99.90;;;;;;4098846;28;20039;-71
2024/02/27 08:55:25;;;;;;;28.65;18.20;;;6.10;99.90;;;;;;4082161;28;20526;-69
2024/02/27 08:57:25;;;;;;;29.15;18.77;;;6.20;99.90;;;;;;4096571;28;20513;-71
2024/02/27 08:59:26;;;;;;;29.05;18.38;;;6.20;99.90;;;;;;4091860;28;20508;-70
2024/02/27 09:01:27;;;;;;;30.83;19.50;;;6.20;99.90;;;;;;4092560;28;20043;-70
2024/02/27 09:03:29;;;;;;;31.23;18.98;;;6.30;99.90;;;;;;4095269;28;20051;-70
2024/02/27 09:05:30;;;;;;;29.45;19.10;;;6.30;99.90;;;;;;4091063;28;20039;-70
2024/02/27 09:07:31;;;;;;;26.80;17.08;;;6.40;99.90;;;;;;4095123;28;20388;-71
2024/02/27 09:09:31;;;;;;;28.52;18.35;;;6.40;99.90;;;;;;4095864;28;20050;-70
2024/02/27 09:11:35;;;;;;;32.17;19.65;;;6.40;99.90;;;;;;4090647;28;20047;-70
2024/02/27 09:13:37;;;;;;;30.05;18.50;;;6.50;99.90;;;;;;4089721;28;20047;-70
2024/02/27 09:15:38;;;;;;;29.07;18.20;;;6.50;99.90;;;;;;4089426;28;20039;-71
2024/02/27 09:17:38;;;;;;;30.40;18.67;;;6.50;99.90;;;;;;4097446;28;20798;-70
2024/02/27 09:19:39;;;;;;;29.70;18.80;;;6.50;99.90;;;;;;4079429;28;20049;-68
2024/02/27 09:21:41;;;;;;;31.73;19.17;;;6.60;99.90;;;;;;4078206;28;20054;-68
2024/02/27 09:23:43;;;;;;;28.73;18.05;;;6.60;99.90;;;;;;4091590;28;20039;-68
2024/02/27 09:25:44;;;;;;;31.23;19.52;;;6.60;99.90;;;;;;4071089;28;20036;-68
2024/02/27 09:27:44;;;;;;;33.78;20.23;;;6.60;99.90;;;;;;4093561;28;20109;-69
2024/02/27 09:29:45;;;;;;;29.67;18.77;;;6.70;99.90;;;;;;4087360;28;20042;-71
2024/02/27 09:31:46;;;;;;;31.55;19.90;;;6.70;99.90;;;;;;4074630;28;20070;-70
2024/02/27 09:34:00;;;;;;;34.72;20.95;;;6.70;99.90;;;;;;4093133;28;20413;-71
2024/02/27 09:36:00;;;;;;;34.30;20.10;;;6.70;99.90;;;;;;4088527;28;20040;-70
2024/02/27 09:38:02;;;;;;;29.58;18.77;;;6.70;99.90;;;;;;4090603;28;21188;-71
2024/02/27 09:40:03;;;;;;;30.98;19.00;;;6.80;99.90;;;;;;4093985;28;20044;-70
2024/02/27 09:42:12;;;;;;;30.42;19.35;;;6.80;99.90;;;;;;4093833;28;20041;-70
2024/02/27 09:44:13;;;;;;;31.52;19.38;;;6.90;99.90;;;;;;4090083;28;20105;-70
2024/02/27 09:46:14;;;;;;;31.80;19.83;;;6.90;99.90;;;;;;4073274;28;20047;-69
2024/02/27 09:48:28;;;;;;;32.17;19.33;;;6.90;99.90;;;;;;4092734;28;20114;-70
2024/02/27 09:50:32;;;;;;;31.60;19.00;;;6.90;99.90;;;;;;4094737;28;20054;-71
2024/02/27 09:52:37;;;;;;;35.95;21.52;;;6.90;99.90;;;;;;4093991;28;20043;-68
2024/02/27 09:54:38;;;;;;;31.38;19.13;;;6.90;99.90;;;;;;4096007;28;20113;-70
2024/02/27 09:56:39;;;;;;;30.50;19.10;;;7.00;99.90;;;;;;4093729;28;20704;-71
2024/02/27 09:58:43;;;;;;;31.05;20.10;;;7.00;99.90;;;;;;4090039;28;20043;-69
2024/02/27 10:00:44;;;;;;;34.83;20.77;;;7.00;99.90;;;;;;4094706;28;20130;-71
2024/02/27 10:02:50;;;;;;;33.05;20.25;;;7.00;99.90;;;;;;4073393;28;20326;-71
2024/02/27 10:04:59;;;;;;;32.42;19.75;;;7.00;99.90;;;;;;4084351;28;20535;-70
2024/02/27 10:07:02;;;;;;;37.90;22.80;;;7.00;99.90;;;;;;4077119;29;20043;-70
2024/02/27 10:09:08;;;;;;;32.40;20.73;;;7.00;99.90;;;;;;4088436;28;20053;-70
2024/02/27 10:11:09;;;;;;;36.95;22.08;;;7.00;99.90;;;;;;4088076;28;20043;-72
2024/02/27 10:13:11;;;;;;;32.95;19.73;;;7.00;99.90;;;;;;4094890;28;20042;-70
2024/02/27 10:15:12;;;;;;;32.17;18.98;;;7.00;99.90;;;;;;4079454;28;20040;-70
2024/02/27 10:17:12;;;;;;;31.23;18.88;;;7.00;99.90;;;;;;4078215;29;20348;-69
2024/02/27 10:19:13;;;;;;;34.33;20.58;;;7.00;99.90;;;;;;4094045;28;20438;-70
2024/02/27 10:21:13;;;;;;;32.95;20.75;;;7.10;99.90;;;;;;4092761;28;20042;-70
2024/02/27 10:23:15;;;;;;;32.70;21.20;;;7.10;99.90;;;;;;4094794;28;20516;-69
2024/02/27 10:25:16;;;;;;;35.47;20.45;;;7.00;99.90;;;;;;4078716;28;20367;-70
2024/02/27 10:27:17;;;;;;;31.90;19.08;;;7.10;99.90;;;;;;4094277;28;20039;-72